Golden Eagle, Illinois
Current Conditions -  °F | °C
As of 5:54 PM on Friday 28 Nov 2014 (Local Time) from KSET Reporting Station
Clear Clear  
Wind Chill: 36°   Ceiling: Unl
Heat Index: 42°   Visibility: 10mi
Dew Point: 35°   Wind: 10mph
Humidity: 76%   Direction: 140°SE
Pressure: 29.93"   Gusts: NA
Location:  38.89°N, 90.58°W
Report Text: KSET 282354Z AUTO 14009KT 10SM CLR 06/02 A2993 RMK AO2 SLP136 T00560017 10106 20044 55005
Loading
Personal Weather Stations






























Interactive Weather Map New forecast layout! Learn more

10-Day Weather Forecast

Advertisements
Track Severe Weather on mobile